sensor_id;sensor_type;location;lat;lon;timestamp;pressure;altitude;pressure_sealevel;temperature;humidity
36014;BME280;22275;43.208;27.620;2023-05-23T00:00:30;100838.16;;;21.17;100.00
36014;BME280;22275;43.208;27.620;2023-05-23T00:03:01;100838.38;;;21.06;100.00
36014;BME280;22275;43.208;27.620;2023-05-23T00:05:28;100837.53;;;21.24;100.00
36014;BME280;22275;43.208;27.620;2023-05-23T00:07:55;100840.78;;;21.09;100.00
36014;BME280;22275;43.208;27.620;2023-05-23T00:10:25;100843.56;;;20.82;100.00
36014;BME280;22275;43.208;27.620;2023-05-23T00:12:54;100850.66;;;20.56;100.00
36014;BME280;22275;43.208;27.620;2023-05-23T00:15:23;100846.41;;;20.63;100.00
36014;BME280;22275;43.208;27.620;2023-05-23T00:17:50;100846.91;;;20.84;100.00
36014;BME280;22275;43.208;27.620;2023-05-23T00:20:22;100827.81;;;20.79;100.00
36014;BME280;22275;43.208;27.620;2023-05-23T00:22:50;100830.00;;;20.84;100.00
36014;BME280;22275;43.208;27.620;2023-05-23T00:25:17;100822.03;;;20.92;100.00
36014;BME280;22275;43.208;27.620;2023-05-23T00:27:46;100827.16;;;21.03;100.00
36014;BME280;22275;43.208;27.620;2023-05-23T00:30:17;100821.97;;;20.84;100.00
36014;BME280;22275;43.208;27.620;2023-05-23T00:32:46;100831.03;;;20.83;100.00
36014;BME280;22275;43.208;27.620;2023-05-23T00:35:13;100835.13;;;21.12;100.00
36014;BME280;22275;43.208;27.620;2023-05-23T00:37:42;100832.41;;;21.30;100.00
36014;BME280;22275;43.208;27.620;2023-05-23T00:40:10;100830.06;;;20.92;100.00
36014;BME280;22275;43.208;27.620;2023-05-23T00:42:38;100837.19;;;21.18;100.00
36014;BME280;22275;43.208;27.620;2023-05-23T00:45:10;100837.53;;;21.24;100.00
36014;BME280;22275;43.208;27.620;2023-05-23T00:47:40;100849.19;;;21.66;100.00
36014;BME280;22275;43.208;27.620;2023-05-23T00:50:11;100846.50;;;21.66;100.00
36014;BME280;22275;43.208;27.620;2023-05-23T00:52:44;100836.38;;;21.52;100.00
36014;BME280;22275;43.208;27.620;2023-05-23T00:55:12;100843.84;;;21.74;100.00
36014;BME280;22275;43.208;27.620;2023-05-23T00:57:40;100839.53;;;21.73;100.00
36014;BME280;22275;43.208;27.620;2023-05-23T01:00:10;100832.75;;;21.95;100.00
36014;BME280;22275;43.208;27.620;2023-05-23T01:02:43;100841.69;;;22.03;100.00
36014;BME280;22275;43.208;27.620;2023-05-23T01:05:13;100837.91;;;21.88;100.00
36014;BME280;22275;43.208;27.620;2023-05-23T01:07:44;100840.53;;;21.80;100.00
36014;BME280;22275;43.208;27.620;2023-05-23T01:10:13;100822.31;;;21.50;100.00
36014;BME280;22275;43.208;27.620;2023-05-23T01:12:48;100825.78;;;21.42;100.00
36014;BME280;22275;43.208;27.620;2023-05-23T01:15:22;100810.97;;;21.30;100.00
36014;BME280;22275;43.208;27.620;2023-05-23T01:18:00;100835.78;;;21.66;100.00
36014;BME280;22275;43.208;27.620;2023-05-23T01:20:34;100844.84;;;21.65;100.00
36014;BME280;22275;43.208;27.620;2023-05-23T01:26:26;100754.63;;;21.48;100.00
36014;BME280;22275;43.208;27.620;2023-05-23T01:29:07;100825.88;;;21.58;100.00
36014;BME280;22275;43.208;27.620;2023-05-23T01:31:41;100814.66;;;21.63;100.00
36014;BME280;22275;43.208;27.620;2023-05-23T01:34:09;100820.91;;;21.46;100.00
36014;BME280;22275;43.208;27.620;2023-05-23T01:36:41;100831.28;;;21.41;100.00
36014;BME280;22275;43.208;27.620;2023-05-23T01:39:09;100834.84;;;21.24;100.00
36014;BME280;22275;43.208;27.620;2023-05-23T01:41:36;100820.31;;;21.26;100.00
36014;BME280;22275;43.208;27.620;2023-05-23T01:44:05;100821.16;;;21.27;100.00
36014;BME280;22275;43.208;27.620;2023-05-23T01:46:33;100830.34;;;21.24;100.00
36014;BME280;22275;43.208;27.620;2023-05-23T01:49:06;100822.47;;;21.23;100.00
36014;BME280;22275;43.208;27.620;2023-05-23T01:51:35;100831.53;;;21.55;100.00
36014;BME280;22275;43.208;27.620;2023-05-23T01:54:03;100831.31;;;21.74;100.00
36014;BME280;22275;43.208;27.620;2023-05-23T01:56:31;100829.22;;;21.60;100.00
36014;BME280;22275;43.208;27.620;2023-05-23T01:58:58;100811.94;;;21.55;100.00
36014;BME280;22275;43.208;27.620;2023-05-23T02:01:30;100807.66;;;21.36;100.00
36014;BME280;22275;43.208;27.620;2023-05-23T02:03:57;100831.44;;;20.96;100.00
36014;BME280;22275;43.208;27.620;2023-05-23T02:06:25;100827.25;;;20.58;100.00
36014;BME280;22275;43.208;27.620;2023-05-23T02:08:53;100833.84;;;20.63;100.00
36014;BME280;22275;43.208;27.620;2023-05-23T02:11:22;100821.94;;;21.01;100.00
36014;BME280;22275;43.208;27.620;2023-05-23T02:13:49;100819.94;;;21.03;100.00
36014;BME280;22275;43.208;27.620;2023-05-23T02:16:19;100827.41;;;21.09;100.00
36014;BME280;22275;43.208;27.620;2023-05-23T02:18:50;100827.13;;;21.20;100.00
36014;BME280;22275;43.208;27.620;2023-05-23T02:21:20;100836.19;;;21.19;100.00
36014;BME280;22275;43.208;27.620;2023-05-23T02:23:56;100831.47;;;21.39;100.00
36014;BME280;22275;43.208;27.620;2023-05-23T02:26:29;100813.00;;;21.10;100.00
36014;BME280;22275;43.208;27.620;2023-05-23T02:28:55;100827.09;;;21.38;100.00
36014;BME280;22275;43.208;27.620;2023-05-23T02:31:23;100818.69;;;21.07;100.00
36014;BME280;22275;43.208;27.620;2023-05-23T02:33:52;100830.88;;;20.49;100.00
36014;BME280;22275;43.208;27.620;2023-05-23T02:36:19;100833.16;;;20.17;100.00
36014;BME280;22275;43.208;27.620;2023-05-23T02:38:46;100841.78;;;20.11;100.00
36014;BME280;22275;43.208;27.620;2023-05-23T02:41:13;100835.66;;;20.28;100.00
36014;BME280;22275;43.208;27.620;2023-05-23T02:43:48;100833.38;;;20.50;100.00
36014;BME280;22275;43.208;27.620;2023-05-23T02:46:15;100840.34;;;20.61;100.00
36014;BME280;22275;43.208;27.620;2023-05-23T02:48:52;100826.03;;;20.70;100.00
36014;BME280;22275;43.208;27.620;2023-05-23T02:51:22;100837.44;;;20.72;100.00
36014;BME280;22275;43.208;27.620;2023-05-23T02:53:52;100834.84;;;20.80;100.00
36014;BME280;22275;43.208;27.620;2023-05-23T02:56:20;100845.22;;;20.83;100.00
36014;BME280;22275;43.208;27.620;2023-05-23T02:58:47;100848.75;;;20.84;100.00
36014;BME280;22275;43.208;27.620;2023-05-23T03:01:16;100843.56;;;20.82;100.00
36014;BME280;22275;43.208;27.620;2023-05-23T03:03:44;100822.50;;;20.70;100.00
36014;BME280;22275;43.208;27.620;2023-05-23T03:06:13;100852.13;;;20.68;100.00
36014;BME280;22275;43.208;27.620;2023-05-23T03:08:44;100855.34;;;20.54;100.00
36014;BME280;22275;43.208;27.620;2023-05-23T03:11:11;100839.03;;;20.47;100.00
36014;BME280;22275;43.208;27.620;2023-05-23T03:13:40;100857.84;;;20.91;100.00
36014;BME280;22275;43.208;27.620;2023-05-23T03:16:07;100853.72;;;20.96;100.00
36014;BME280;22275;43.208;27.620;2023-05-23T03:18:36;100851.81;;;20.89;100.00
36014;BME280;22275;43.208;27.620;2023-05-23T03:21:06;100855.84;;;20.75;100.00
36014;BME280;22275;43.208;27.620;2023-05-23T03:23:35;100851.13;;;20.69;100.00
36014;BME280;22275;43.208;27.620;2023-05-23T03:26:02;100853.41;;;20.64;100.00
36014;BME280;22275;43.208;27.620;2023-05-23T03:28:31;100852.34;;;20.57;100.00
36014;BME280;22275;43.208;27.620;2023-05-23T03:30:58;100858.25;;;20.43;100.00
36014;BME280;22275;43.208;27.620;2023-05-23T03:33:25;100856.16;;;20.37;100.00
36014;BME280;22275;43.208;27.620;2023-05-23T03:35:52;100861.91;;;20.59;100.00
36014;BME280;22275;43.208;27.620;2023-05-23T03:38:22;100863.00;;;20.49;100.00
36014;BME280;22275;43.208;27.620;2023-05-23T03:40:50;100861.66;;;20.35;100.00
36014;BME280;22275;43.208;27.620;2023-05-23T03:43:17;100854.09;;;20.21;100.00
36014;BME280;22275;43.208;27.620;2023-05-23T03:45:44;100862.19;;;20.39;100.00
36014;BME280;22275;43.208;27.620;2023-05-23T03:48:11;100866.19;;;20.35;100.00
36014;BME280;22275;43.208;27.620;2023-05-23T03:50:38;100865.81;;;20.47;100.00
36014;BME280;22275;43.208;27.620;2023-05-23T03:53:06;100869.75;;;20.43;100.00
36014;BME280;22275;43.208;27.620;2023-05-23T03:55:33;100868.88;;;20.70;100.00
36014;BME280;22275;43.208;27.620;2023-05-23T03:58:01;100863.81;;;20.49;100.00
36014;BME280;22275;43.208;27.620;2023-05-23T04:00:31;100869.63;;;20.45;100.00
36014;BME280;22275;43.208;27.620;2023-05-23T04:02:58;100875.59;;;20.56;100.00
36014;BME280;22275;43.208;27.620;2023-05-23T04:05:25;100872.06;;;20.56;100.00
36014;BME280;22275;43.208;27.620;2023-05-23T04:07:52;100881.53;;;20.33;100.00
36014;BME280;22275;43.208;27.620;2023-05-23T04:10:20;100891.44;;;20.68;100.00
36014;BME280;22275;43.208;27.620;2023-05-23T04:12:47;100888.34;;;20.45;100.00
36014;BME280;22275;43.208;27.620;2023-05-23T04:15:15;100874.91;;;20.72;100.00
36014;BME280;22275;43.208;27.620;2023-05-23T04:17:43;100883.94;;;20.71;100.00
36014;BME280;22275;43.208;27.620;2023-05-23T04:20:12;100870.63;;;20.79;100.00
36014;BME280;22275;43.208;27.620;2023-05-23T04:22:39;100874.47;;;20.77;100.00
36014;BME280;22275;43.208;27.620;2023-05-23T04:25:17;100875.66;;;21.17;100.00
36014;BME280;22275;43.208;27.620;2023-05-23T04:27:45;100877.59;;;21.51;100.00
36014;BME280;22275;43.208;27.620;2023-05-23T04:30:14;100877.38;;;21.44;100.00
36014;BME280;22275;43.208;27.620;2023-05-23T04:32:44;100873.69;;;21.02;100.00
36014;BME280;22275;43.208;27.620;2023-05-23T04:35:11;100876.34;;;21.02;100.00
36014;BME280;22275;43.208;27.620;2023-05-23T04:37:38;100883.84;;;20.81;100.00
36014;BME280;22275;43.208;27.620;2023-05-23T04:40:10;100872.38;;;21.24;100.00
36014;BME280;22275;43.208;27.620;2023-05-23T04:42:39;100894.16;;;21.29;100.00
36014;BME280;22275;43.208;27.620;2023-05-23T04:45:08;100887.25;;;21.69;100.00
36014;BME280;22275;43.208;27.620;2023-05-23T04:47:39;100860.34;;;21.28;100.00
36014;BME280;22275;43.208;27.620;2023-05-23T04:50:11;100894.72;;;21.58;100.00
36014;BME280;22275;43.208;27.620;2023-05-23T04:52:41;100901.97;;;21.65;100.00
36014;BME280;22275;43.208;27.620;2023-05-23T04:55:08;100907.09;;;22.02;100.00
36014;BME280;22275;43.208;27.620;2023-05-23T04:57:35;100906.53;;;22.32;100.00
36014;BME280;22275;43.208;27.620;2023-05-23T05:00:03;100910.69;;;22.19;100.00
36014;BME280;22275;43.208;27.620;2023-05-23T05:02:38;100909.75;;;22.44;100.00
36014;BME280;22275;43.208;27.620;2023-05-23T05:05:09;100900.50;;;22.30;100.00
36014;BME280;22275;43.208;27.620;2023-05-23T05:07:38;100911.91;;;22.41;100.00
36014;BME280;22275;43.208;27.620;2023-05-23T05:10:06;100908.63;;;22.63;100.00
36014;BME280;22275;43.208;27.620;2023-05-23T05:12:33;100905.03;;;23.12;100.00
36014;BME280;22275;43.208;27.620;2023-05-23T05:15:01;100901.66;;;23.67;100.00
36014;BME280;22275;43.208;27.620;2023-05-23T05:17:28;100899.66;;;23.44;100.00
36014;BME280;22275;43.208;27.620;2023-05-23T05:19:58;100901.81;;;23.33;100.00
36014;BME280;22275;43.208;27.620;2023-05-23T05:22:30;100891.22;;;23.56;100.00
36014;BME280;22275;43.208;27.620;2023-05-23T05:24:57;100898.97;;;23.51;100.00
36014;BME280;22275;43.208;27.620;2023-05-23T05:27:24;100887.84;;;23.62;100.00
36014;BME280;22275;43.208;27.620;2023-05-23T05:29:51;100894.41;;;24.22;100.00
36014;BME280;22275;43.208;27.620;2023-05-23T05:32:18;100901.06;;;24.42;100.00
36014;BME280;22275;43.208;27.620;2023-05-23T05:34:47;100904.03;;;24.09;100.00
36014;BME280;22275;43.208;27.620;2023-05-23T05:37:15;100899.16;;;24.20;100.00
36014;BME280;22275;43.208;27.620;2023-05-23T05:39:42;100894.84;;;24.65;100.00
36014;BME280;22275;43.208;27.620;2023-05-23T05:42:09;100890.16;;;24.89;100.00
36014;BME280;22275;43.208;27.620;2023-05-23T05:44:36;100886.63;;;25.11;100.00
36014;BME280;22275;43.208;27.620;2023-05-23T05:47:04;100888.41;;;24.74;100.00
36014;BME280;22275;43.208;27.620;2023-05-23T05:49:31;100903.00;;;24.79;100.00
36014;BME280;22275;43.208;27.620;2023-05-23T05:52:07;100901.31;;;24.78;100.00
36014;BME280;22275;43.208;27.620;2023-05-23T05:54:38;100899.78;;;25.29;100.00
36014;BME280;22275;43.208;27.620;2023-05-23T05:57:07;100899.31;;;25.48;100.00
36014;BME280;22275;43.208;27.620;2023-05-23T05:59:36;100901.72;;;24.98;100.00
36014;BME280;22275;43.208;27.620;2023-05-23T06:02:04;100898.47;;;25.25;100.00
36014;BME280;22275;43.208;27.620;2023-05-23T06:04:32;100895.94;;;25.24;100.00
36014;BME280;22275;43.208;27.620;2023-05-23T06:07:01;100913.94;;;25.54;100.00
36014;BME280;22275;43.208;27.620;2023-05-23T06:09:28;100894.13;;;25.76;100.00
36014;BME280;22275;43.208;27.620;2023-05-23T06:11:57;100898.00;;;26.03;100.00
36014;BME280;22275;43.208;27.620;2023-05-23T06:14:24;100890.22;;;26.08;100.00
36014;BME280;22275;43.208;27.620;2023-05-23T06:16:51;100874.19;;;25.92;100.00
36014;BME280;22275;43.208;27.620;2023-05-23T06:19:18;100885.00;;;25.62;100.00
36014;BME280;22275;43.208;27.620;2023-05-23T06:21:49;100875.97;;;25.70;100.00
36014;BME280;22275;43.208;27.620;2023-05-23T06:24:17;100883.50;;;25.75;100.00
36014;BME280;22275;43.208;27.620;2023-05-23T06:26:44;100883.59;;;25.81;100.00
36014;BME280;22275;43.208;27.620;2023-05-23T06:29:15;100883.44;;;25.83;100.00
36014;BME280;22275;43.208;27.620;2023-05-23T06:31:43;100887.16;;;25.82;100.00
36014;BME280;22275;43.208;27.620;2023-05-23T06:34:10;100892.44;;;25.75;100.00
36014;BME280;22275;43.208;27.620;2023-05-23T06:36:37;100883.50;;;26.04;100.00
36014;BME280;22275;43.208;27.620;2023-05-23T06:39:04;100882.03;;;26.16;100.00
36014;BME280;22275;43.208;27.620;2023-05-23T06:41:34;100885.94;;;26.28;100.00
36014;BME280;22275;43.208;27.620;2023-05-23T06:44:04;100886.69;;;26.22;100.00
36014;BME280;22275;43.208;27.620;2023-05-23T06:46:32;100892.25;;;25.02;100.00
36014;BME280;22275;43.208;27.620;2023-05-23T06:49:01;100889.50;;;25.10;100.00
36014;BME280;22275;43.208;27.620;2023-05-23T06:51:28;100883.16;;;25.03;100.00
36014;BME280;22275;43.208;27.620;2023-05-23T06:53:56;100877.16;;;25.15;100.00
36014;BME280;22275;43.208;27.620;2023-05-23T06:56:23;100878.44;;;25.05;100.00
36014;BME280;22275;43.208;27.620;2023-05-23T06:58:50;100864.66;;;25.00;100.00
36014;BME280;22275;43.208;27.620;2023-05-23T07:01:20;100879.16;;;24.99;100.00
36014;BME280;22275;43.208;27.620;2023-05-23T07:03:48;100864.22;;;25.11;100.00
36014;BME280;22275;43.208;27.620;2023-05-23T07:06:15;100873.09;;;24.97;100.00
36014;BME280;22275;43.208;27.620;2023-05-23T07:08:43;100873.09;;;25.20;100.00
36014;BME280;22275;43.208;27.620;2023-05-23T07:11:11;100853.59;;;25.47;100.00
36014;BME280;22275;43.208;27.620;2023-05-23T07:13:40;100873.16;;;25.26;100.00
36014;BME280;22275;43.208;27.620;2023-05-23T07:16:07;100862.03;;;25.29;100.00
36014;BME280;22275;43.208;27.620;2023-05-23T07:18:34;100856.19;;;25.40;100.00
36014;BME280;22275;43.208;27.620;2023-05-23T07:21:03;100864.91;;;25.28;100.00
36014;BME280;22275;43.208;27.620;2023-05-23T07:23:31;100862.97;;;25.36;100.00
36014;BME280;22275;43.208;27.620;2023-05-23T07:25:59;100846.50;;;25.46;100.00
36014;BME280;22275;43.208;27.620;2023-05-23T07:28:26;100859.41;;;25.58;100.00
36014;BME280;22275;43.208;27.620;2023-05-23T07:30:52;100864.16;;;25.56;100.00
36014;BME280;22275;43.208;27.620;2023-05-23T07:33:22;100864.88;;;25.50;100.00
36014;BME280;22275;43.208;27.620;2023-05-23T07:35:49;100860.00;;;25.46;100.00
36014;BME280;22275;43.208;27.620;2023-05-23T07:38:18;100859.47;;;25.13;100.00
36014;BME280;22275;43.208;27.620;2023-05-23T07:40:46;100871.19;;;24.83;100.00
36014;BME280;22275;43.208;27.620;2023-05-23T07:43:13;100859.03;;;25.24;100.00
36014;BME280;22275;43.208;27.620;2023-05-23T07:45:43;100862.53;;;25.10;100.00
36014;BME280;22275;43.208;27.620;2023-05-23T07:48:11;100851.31;;;25.21;100.00
36014;BME280;22275;43.208;27.620;2023-05-23T07:50:41;100862.03;;;25.29;100.00
36014;BME280;22275;43.208;27.620;2023-05-23T07:53:09;100855.97;;;25.64;100.00
36014;BME280;22275;43.208;27.620;2023-05-23T07:55:37;100862.66;;;25.68;100.00
36014;BME280;22275;43.208;27.620;2023-05-23T07:58:04;100847.16;;;25.33;100.00
36014;BME280;22275;43.208;27.620;2023-05-23T08:00:31;100865.28;;;25.77;100.00
36014;BME280;22275;43.208;27.620;2023-05-23T08:02:58;100860.31;;;25.95;100.00
36014;BME280;22275;43.208;27.620;2023-05-23T08:05:26;100860.63;;;25.70;100.00
36014;BME280;22275;43.208;27.620;2023-05-23T08:07:53;100859.56;;;26.30;100.00
36014;BME280;22275;43.208;27.620;2023-05-23T08:10:20;100859.69;;;25.93;100.00
36014;BME280;22275;43.208;27.620;2023-05-23T08:12:48;100845.72;;;25.60;100.00
36014;BME280;22275;43.208;27.620;2023-05-23T08:15:18;100855.13;;;25.79;100.00
36014;BME280;22275;43.208;27.620;2023-05-23T08:17:47;100855.97;;;25.94;100.00
36014;BME280;22275;43.208;27.620;2023-05-23T08:20:14;100862.13;;;25.88;100.00
36014;BME280;22275;43.208;27.620;2023-05-23T08:22:41;100855.03;;;26.01;100.00
36014;BME280;22275;43.208;27.620;2023-05-23T08:25:09;100845.19;;;25.64;100.00
36014;BME280;22275;43.208;27.620;2023-05-23T08:27:35;100844.66;;;25.46;100.00
36014;BME280;22275;43.208;27.620;2023-05-23T08:30:05;100828.00;;;25.28;100.00
36014;BME280;22275;43.208;27.620;2023-05-23T08:32:35;100845.06;;;25.87;100.00
36014;BME280;22275;43.208;27.620;2023-05-23T08:35:04;100828.56;;;26.26;100.00
36014;BME280;22275;43.208;27.620;2023-05-23T08:37:33;100848.41;;;25.60;100.00
36014;BME280;22275;43.208;27.620;2023-05-23T08:40:00;100847.94;;;25.86;100.00
36014;BME280;22275;43.208;27.620;2023-05-23T08:42:28;100844.00;;;26.03;100.00
36014;BME280;22275;43.208;27.620;2023-05-23T08:44:55;100836.22;;;26.08;100.00
36014;BME280;22275;43.208;27.620;2023-05-23T08:47:24;100840.53;;;25.88;100.00
36014;BME280;22275;43.208;27.620;2023-05-23T08:49:51;100831.06;;;26.13;100.00
36014;BME280;22275;43.208;27.620;2023-05-23T08:52:22;100834.41;;;26.30;100.00
36014;BME280;22275;43.208;27.620;2023-05-23T08:54:56;100823.91;;;26.56;100.00
36014;BME280;22275;43.208;27.620;2023-05-23T08:57:24;100832.28;;;26.82;100.00
36014;BME280;22275;43.208;27.620;2023-05-23T08:59:51;100839.50;;;26.96;100.00
36014;BME280;22275;43.208;27.620;2023-05-23T09:02:18;100841.72;;;26.50;100.00
36014;BME280;22275;43.208;27.620;2023-05-23T09:04:48;100829.44;;;26.69;100.00
36014;BME280;22275;43.208;27.620;2023-05-23T09:07:15;100814.50;;;27.22;100.00
36014;BME280;22275;43.208;27.620;2023-05-23T09:09:44;100812.66;;;27.50;100.00
36014;BME280;22275;43.208;27.620;2023-05-23T09:12:13;100814.25;;;26.89;100.00
36014;BME280;22275;43.208;27.620;2023-05-23T09:14:40;100824.03;;;26.69;100.00
36014;BME280;22275;43.208;27.620;2023-05-23T09:17:08;100807.84;;;27.18;100.00
36014;BME280;22275;43.208;27.620;2023-05-23T09:19:39;100813.69;;;27.21;100.00
36014;BME280;22275;43.208;27.620;2023-05-23T09:22:07;100809.84;;;27.37;100.00
36014;BME280;22275;43.208;27.620;2023-05-23T09:24:34;100802.47;;;26.75;100.00
36014;BME280;22275;43.208;27.620;2023-05-23T09:27:03;100812.94;;;26.21;100.00
36014;BME280;22275;43.208;27.620;2023-05-23T09:29:30;100809.69;;;26.90;100.00
36014;BME280;22275;43.208;27.620;2023-05-23T09:31:59;100825.31;;;26.52;100.00
36014;BME280;22275;43.208;27.620;2023-05-23T09:34:39;100805.81;;;26.77;100.00
36014;BME280;22275;43.208;27.620;2023-05-23T09:37:11;100791.97;;;26.66;100.00
36014;BME280;22275;43.208;27.620;2023-05-23T09:39:45;100802.59;;;27.10;100.00
36014;BME280;22275;43.208;27.620;2023-05-23T09:42:18;100812.94;;;27.34;100.00
36014;BME280;22275;43.208;27.620;2023-05-23T09:44:45;100815.19;;;27.03;100.00
36014;BME280;22275;43.208;27.620;2023-05-23T09:47:14;100818.06;;;26.95;100.00
36014;BME280;22275;43.208;27.620;2023-05-23T09:49:43;100805.22;;;27.03;100.00
36014;BME280;22275;43.208;27.620;2023-05-23T09:52:11;100806.38;;;27.43;100.00
36014;BME280;22275;43.208;27.620;2023-05-23T09:54:40;100805.59;;;27.96;100.00
36014;BME280;22275;43.208;27.620;2023-05-23T09:57:09;100810.13;;;27.83;100.00
36014;BME280;22275;43.208;27.620;2023-05-23T09:59:44;100805.19;;;28.00;100.00
36014;BME280;22275;43.208;27.620;2023-05-23T10:05:45;100797.59;;;28.23;100.00
36014;BME280;22275;43.208;27.620;2023-05-23T10:08:15;100794.19;;;28.68;100.00
36014;BME280;22275;43.208;27.620;2023-05-23T10:11:00;100793.75;;;29.04;100.00
36014;BME280;22275;43.208;27.620;2023-05-23T10:13:39;100800.00;;;28.78;100.00
36014;BME280;22275;43.208;27.620;2023-05-23T10:16:09;100801.91;;;28.71;100.00
36014;BME280;22275;43.208;27.620;2023-05-23T10:18:42;100806.56;;;28.30;100.00
36014;BME280;22275;43.208;27.620;2023-05-23T10:21:12;100796.66;;;27.55;100.00
36014;BME280;22275;43.208;27.620;2023-05-23T10:23:44;100810.84;;;27.36;100.00
36014;BME280;22275;43.208;27.620;2023-05-23T10:26:13;100814.94;;;26.34;100.00
36014;BME280;22275;43.208;27.620;2023-05-23T10:28:43;100811.13;;;26.71;100.00
36014;BME280;22275;43.208;27.620;2023-05-23T10:31:11;100813.66;;;26.30;100.00
36014;BME280;22275;43.208;27.620;2023-05-23T10:33:45;100816.84;;;26.19;100.00
36014;BME280;22275;43.208;27.620;2023-05-23T10:36:21;100809.72;;;26.33;100.00
36014;BME280;22275;43.208;27.620;2023-05-23T10:38:59;100816.34;;;26.30;100.00
36014;BME280;22275;43.208;27.620;2023-05-23T10:41:40;100829.47;;;26.33;100.00
36014;BME280;22275;43.208;27.620;2023-05-23T10:44:14;100830.06;;;26.14;100.00
36014;BME280;22275;43.208;27.620;2023-05-23T10:46:53;100825.69;;;26.70;100.00
36014;BME280;22275;43.208;27.620;2023-05-23T10:49:39;100829.44;;;26.69;100.00
36014;BME280;22275;43.208;27.620;2023-05-23T10:52:08;100827.81;;;26.74;100.00
36014;BME280;22275;43.208;27.620;2023-05-23T10:54:43;100835.50;;;27.20;100.00
36014;BME280;22275;43.208;27.620;2023-05-23T10:57:15;100836.38;;;26.99;100.00
36014;BME280;22275;43.208;27.620;2023-05-23T10:59:44;100868.69;;;26.00;100.00
36014;BME280;22275;43.208;27.620;2023-05-23T11:02:13;100875.94;;;25.18;100.00
36014;BME280;22275;43.208;27.620;2023-05-23T11:04:47;100881.28;;;25.78;100.00
36014;BME280;22275;43.208;27.620;2023-05-23T11:07:30;100866.50;;;25.22;100.00
36014;BME280;22275;43.208;27.620;2023-05-23T11:10:08;100889.72;;;25.00;100.00
36014;BME280;22275;43.208;27.620;2023-05-23T11:12:40;100908.59;;;24.47;100.00
36014;BME280;22275;43.208;27.620;2023-05-23T11:15:20;100883.34;;;24.09;100.00
36014;BME280;22275;43.208;27.620;2023-05-23T11:17:53;100899.09;;;24.28;100.00
36014;BME280;22275;43.208;27.620;2023-05-23T11:20:21;100892.63;;;24.99;100.00
36014;BME280;22275;43.208;27.620;2023-05-23T11:23:00;100905.97;;;24.62;100.00
36014;BME280;22275;43.208;27.620;2023-05-23T11:25:41;100899.25;;;24.35;100.00
36014;BME280;22275;43.208;27.620;2023-05-23T11:28:08;100897.47;;;24.50;100.00
36014;BME280;22275;43.208;27.620;2023-05-23T11:30:37;100903.44;;;24.37;100.00
36014;BME280;22275;43.208;27.620;2023-05-23T11:33:08;100886.91;;;24.01;100.00
36014;BME280;22275;43.208;27.620;2023-05-23T11:35:39;100892.66;;;24.37;100.00
36014;BME280;22275;43.208;27.620;2023-05-23T11:38:06;100892.72;;;24.60;100.00
36014;BME280;22275;43.208;27.620;2023-05-23T11:40:34;100868.53;;;24.75;100.00
36014;BME280;22275;43.208;27.620;2023-05-23T11:43:04;100884.78;;;24.58;100.00
36014;BME280;22275;43.208;27.620;2023-05-23T11:45:32;100887.44;;;25.12;100.00
36014;BME280;22275;43.208;27.620;2023-05-23T11:48:07;100881.66;;;25.38;100.00
36014;BME280;22275;43.208;27.620;2023-05-23T11:50:42;100885.06;;;25.17;100.00
36014;BME280;22275;43.208;27.620;2023-05-23T11:53:10;100884.47;;;25.44;100.00
36014;BME280;22275;43.208;27.620;2023-05-23T11:55:39;100876.97;;;25.54;100.00
36014;BME280;22275;43.208;27.620;2023-05-23T11:58:09;100863.94;;;25.21;100.00
36014;BME280;22275;43.208;27.620;2023-05-23T12:00:44;100866.56;;;26.10;100.00
36014;BME280;22275;43.208;27.620;2023-05-23T12:03:12;100881.94;;;26.45;100.00
36014;BME280;22275;43.208;27.620;2023-05-23T12:05:42;100864.13;;;26.30;100.00
36014;BME280;22275;43.208;27.620;2023-05-23T12:08:11;100864.44;;;25.91;100.00
36014;BME280;22275;43.208;27.620;2023-05-23T12:10:49;100860.25;;;25.59;100.00
36014;BME280;22275;43.208;27.620;2023-05-23T12:13:18;100872.53;;;25.91;100.00
36014;BME280;22275;43.208;27.620;2023-05-23T12:15:48;100866.78;;;25.94;100.00
36014;BME280;22275;43.208;27.620;2023-05-23T12:18:18;100868.41;;;26.24;100.00
36014;BME280;22275;43.208;27.620;2023-05-23T12:20:47;100860.66;;;26.36;100.00
36014;BME280;22275;43.208;27.620;2023-05-23T12:23:19;100856.03;;;26.87;100.00
36014;BME280;22275;43.208;27.620;2023-05-23T12:25:49;100850.28;;;27.17;100.00
36014;BME280;22275;43.208;27.620;2023-05-23T12:28:18;100837.41;;;26.77;100.00
36014;BME280;22275;43.208;27.620;2023-05-23T12:30:46;100842.00;;;27.47;100.00
36014;BME280;22275;43.208;27.620;2023-05-23T12:33:13;100840.00;;;28.03;100.00
36014;BME280;22275;43.208;27.620;2023-05-23T12:35:44;100836.88;;;28.46;100.00
36014;BME280;22275;43.208;27.620;2023-05-23T12:38:14;100830.00;;;27.34;100.00
36014;BME280;22275;43.208;27.620;2023-05-23T12:40:42;100836.53;;;27.74;100.00
36014;BME280;22275;43.208;27.620;2023-05-23T12:43:09;100825.94;;;28.20;100.00
36014;BME280;22275;43.208;27.620;2023-05-23T12:45:41;100816.34;;;28.24;100.00
36014;BME280;22275;43.208;27.620;2023-05-23T12:48:08;100829.38;;;28.55;100.00